Bryan's Hourly Summary for Wednesday, March 15, 2017
Hour Temp
(f)
RH
(%)
Solar Rad.
(MJ/m2)
Rainfall
(in)
Wind
(mph)
3/15/2017 12:00 AM 56 55 0 0 3.02
3/15/2017 1:00 AM 52 62 0 0 2.77
3/15/2017 2:00 AM 52 62 0 0 1.74
3/15/2017 3:00 AM 48 76 0 0 0.28
3/15/2017 4:00 AM 49 80 0 0 1.41
3/15/2017 5:00 AM 47 83 0 0 1.03
3/15/2017 6:00 AM 46 89 0 0 2.21
3/15/2017 7:00 AM 45 89 0 0 4.17
3/15/2017 8:00 AM 47 87 0.03 0 3.36
3/15/2017 9:00 AM 49 79 0.49 0 4.53
3/15/2017 10:00 AM 52 75 1.19 0 6.86
3/15/2017 11:00 AM 56 67 1.77 0 5.98
3/15/2017 12:00 PM 60 58 2.49 0 5.06
3/15/2017 1:00 PM 62 54 2.86 0 5.84
3/15/2017 2:00 PM 64 47 2.98 0 5.36
3/15/2017 3:00 PM 66 42 2.88 0 5.43
3/15/2017 4:00 PM 68 41 2.53 0 6.33
3/15/2017 5:00 PM 69 36 1.97 0 6.84
3/15/2017 6:00 PM 70 35 1.3 0 6.68
3/15/2017 7:00 PM 68 40 0.56 0 7.21
3/15/2017 8:00 PM 66 49 0.05 0 5.34
3/15/2017 9:00 PM 64 56 0 0 5.68
3/15/2017 10:00 PM 62 65 0 0 8.31
3/15/2017 11:00 PM 59 73 0 0 8.36
Data Summary 57 62 21.10 0.00 4.74